Time;durP1;ratioP1;P1;durP2;ratioP2;P2;SDS_P1;SDS_P2;PMS_P1;PMS_P2;Temp;Humidity;BMP_temperature;BMP_pressure;BME280_temperature;BME280_humidity;BME280_pressure;Samples;Min_cycle;Max_cycle;Signal;HPM_P1;HPM_P2
2023/02/02 00:01:57;;;;;;;1.70;0.40;;;;;;;;;;4984349;23;20103;-95
2023/02/02 00:04:25;;;;;;;2.25;0.40;;;;;;;;;;4938106;29;20514;-94
2023/02/02 00:07:01;;;;;;;1.40;0.32;;;;;;;;;;4938060;29;20081;-96
2023/02/02 00:09:32;;;;;;;0.70;0.20;;;;;;;;;;4938881;29;20046;-96
2023/02/02 00:12:02;;;;;;;2.03;0.30;;;;;;;;;;4955582;29;20023;-94
2023/02/02 00:14:40;;;;;;;1.52;0.30;;;;;;;;;;4938530;29;20411;-95
2023/02/02 00:17:08;;;;;;;1.80;0.30;;;;;;;;;;4937513;29;20035;-95
2023/02/02 00:19:37;;;;;;;0.93;0.35;;;;;;;;;;4937716;29;20043;-95
2023/02/02 00:25:16;;;;;;;1.63;0.50;;;;;;;;;;4953841;29;20035;-96
2023/02/02 00:28:09;;;;;;;2.50;0.30;;;;;;;;;;4940082;29;20055;-96
2023/02/02 00:33:27;;;;;;;2.50;0.50;;;;;;;;;;4956079;29;20459;-95
2023/02/02 00:35:54;;;;;;;1.48;0.30;;;;;;;;;;4956126;29;20527;-95
2023/02/02 00:38:23;;;;;;;0.98;0.30;;;;;;;;;;4939727;29;20036;-96
2023/02/02 00:40:52;;;;;;;2.85;0.50;;;;;;;;;;4938324;29;20123;-96
2023/02/02 00:43:27;;;;;;;1.42;0.43;;;;;;;;;;4937650;29;20016;-95
2023/02/02 00:46:02;;;;;;;2.72;0.30;;;;;;;;;;4938358;29;20043;-96
2023/02/02 00:49:02;;;;;;;;;;;;;;;;;;;;;
2023/02/02 00:51:17;;;;;;;2.38;0.52;;;;;;;;;;4948455;29;20036;-95
2023/02/02 00:53:46;;;;;;;1.45;0.32;;;;;;;;;;4937532;29;20042;-95
2023/02/02 00:56:14;;;;;;;1.52;0.50;;;;;;;;;;4938769;29;20036;-96
2023/02/02 00:58:46;;;;;;;2.60;0.50;;;;;;;;;;4937016;29;20032;-95
2023/02/02 01:01:16;;;;;;;2.10;0.70;;;;;;;;;;4934625;29;20055;-95
2023/02/02 01:03:43;;;;;;;2.08;0.50;;;;;;;;;;4935982;29;20551;-93
2023/02/02 01:06:11;;;;;;;3.33;0.50;;;;;;;;;;4935907;29;20028;-94
2023/02/02 01:08:40;;;;;;;0.98;0.30;;;;;;;;;;4934792;29;20032;-96
2023/02/02 01:11:09;;;;;;;1.45;0.50;;;;;;;;;;4935367;29;20498;-96
2023/02/02 01:13:42;;;;;;;3.28;0.40;;;;;;;;;;4935299;29;20459;-95
2023/02/02 01:16:24;;;;;;;;;;;;;;;;;;;;;
2023/02/02 01:18:54;;;;;;;3.03;0.43;;;;;;;;;;4935698;29;20039;-95
2023/02/02 01:21:40;;;;;;;1.10;0.40;;;;;;;;;;4935962;29;20480;-96
2023/02/02 01:24:06;;;;;;;2.72;0.50;;;;;;;;;;4920653;29;20032;-95
2023/02/02 01:26:35;;;;;;;1.90;0.70;;;;;;;;;;4935486;29;20028;-95
2023/02/02 01:29:19;;;;;;;1.23;0.60;;;;;;;;;;4935292;29;20028;-96
2023/02/02 01:31:48;;;;;;;3.38;0.80;;;;;;;;;;4935382;29;20028;-95
2023/02/02 01:34:29;;;;;;;2.15;0.90;;;;;;;;;;4935712;29;20035;-96
2023/02/02 01:37:05;;;;;;;1.88;0.70;;;;;;;;;;4934176;29;20032;-95
2023/02/02 01:39:34;;;;;;;1.73;0.60;;;;;;;;;;4933507;29;20028;-95
2023/02/02 01:42:05;;;;;;;2.65;0.43;;;;;;;;;;4935785;29;20040;-96
2023/02/02 01:44:53;;;;;;;2.70;0.70;;;;;;;;;;4934655;29;20082;-96
2023/02/02 01:47:33;;;;;;;2.70;0.55;;;;;;;;;;4936516;29;20036;-96
2023/02/02 01:50:20;;;;;;;4.35;0.52;;;;;;;;;;4936499;29;20023;-96
2023/02/02 01:52:48;;;;;;;2.45;0.57;;;;;;;;;;4936804;29;20119;-94
2023/02/02 01:55:29;;;;;;;3.35;0.82;;;;;;;;;;4945614;29;20035;-95
2023/02/02 01:58:28;;;;;;;2.05;0.50;;;;;;;;;;4948910;29;20039;-96
2023/02/02 02:00:59;;;;;;;2.15;0.60;;;;;;;;;;4922622;29;20374;-96
2023/02/02 02:03:35;;;;;;;3.00;0.60;;;;;;;;;;4939521;29;20037;-96
2023/02/02 02:06:37;;;;;;;1.65;0.50;;;;;;;;;;4938553;29;20130;-96
2023/02/02 02:09:19;;;;;;;;;;;;;;;;;;;;;
2023/02/02 02:12:01;;;;;;;;;;;;;;;;;;;;;
2023/02/02 02:17:43;;;;;;;2.38;0.68;;;;;;;;;;4960578;29;20393;-96
2023/02/02 02:38:17;;;;;;;2.83;0.60;;;;;;;;;;5010504;23;20054;-96
2023/02/02 02:41:15;;;;;;;3.92;0.70;;;;;;;;;;4942369;29;20481;-95
2023/02/02 02:44:10;;;;;;;1.48;0.50;;;;;;;;;;4937415;29;20044;-95
2023/02/02 02:46:36;;;;;;;4.18;0.70;;;;;;;;;;4935168;29;20039;-96
2023/02/02 02:49:10;;;;;;;2.38;0.55;;;;;;;;;;4941857;29;20114;-95
2023/02/02 02:51:45;;;;;;;3.30;0.80;;;;;;;;;;4942920;29;20090;-96
2023/02/02 02:54:26;;;;;;;2.30;0.60;;;;;;;;;;4941677;29;20192;-95
2023/02/02 02:57:24;;;;;;;;;;;;;;;;;;;;;
2023/02/02 03:02:54;;;;;;;4.03;0.82;;;;;;;;;;4948042;29;20129;-95
2023/02/02 03:05:53;;;;;;;3.17;0.80;;;;;;;;;;4956656;29;20031;-96
2023/02/02 03:09:18;;;;;;;;;;;;;;;;;;;;;
2023/02/02 03:12:06;;;;;;;2.97;0.70;;;;;;;;;;4960345;28;20043;-96
2023/02/02 03:14:56;;;;;;;3.25;0.70;;;;;;;;;;4938076;29;20042;-95
2023/02/02 03:17:22;;;;;;;4.10;0.85;;;;;;;;;;4939807;29;20086;-92
2023/02/02 03:19:53;;;;;;;3.10;0.80;;;;;;;;;;4940524;29;20472;-96
2023/02/02 03:22:29;;;;;;;2.92;0.50;;;;;;;;;;4948174;29;20034;-95
2023/02/02 03:25:15;;;;;;;3.92;0.63;;;;;;;;;;4953030;29;20039;-95
2023/02/02 03:28:05;;;;;;;;;;;;;;;;;;;;;
2023/02/02 03:30:31;;;;;;;4.85;0.70;;;;;;;;;;4971698;28;20055;-96
2023/02/02 03:33:07;;;;;;;2.38;0.70;;;;;;;;;;4943327;29;20071;-96
2023/02/02 03:35:55;;;;;;;;;;;;;;;;;;;;;
2023/02/02 03:41:57;;;;;;;1.80;0.70;;;;;;;;;;4920901;29;20044;-96
2023/02/02 03:48:01;;;;;;;1.55;0.60;;;;;;;;;;4917876;29;20060;-95
2023/02/02 03:50:28;;;;;;;1.40;0.68;;;;;;;;;;4917275;29;20628;-96
2023/02/02 03:53:23;;;;;;;1.65;0.70;;;;;;;;;;4919900;29;20052;-95
2023/02/02 03:56:20;;;;;;;2.47;0.90;;;;;;;;;;4908235;29;20396;-94
2023/02/02 04:02:04;;;;;;;4.25;0.88;;;;;;;;;;4908244;29;20039;-95
2023/02/02 04:04:33;;;;;;;3.80;0.88;;;;;;;;;;4919518;29;20131;-96
2023/02/02 04:07:41;;;;;;;1.58;0.80;;;;;;;;;;4919803;29;20366;-96
2023/02/02 04:10:08;;;;;;;5.38;0.90;;;;;;;;;;4920435;29;20032;-96
2023/02/02 04:13:01;;;;;;;3.00;1.05;;;;;;;;;;4920421;29;20047;-96
2023/02/02 04:18:37;;;;;;;3.15;0.80;;;;;;;;;;4920892;29;20061;-95
2023/02/02 04:21:10;;;;;;;4.13;1.02;;;;;;;;;;4916650;29;20039;-96
2023/02/02 04:27:01;;;;;;;2.75;0.70;;;;;;;;;;4918913;29;20032;-95
2023/02/02 04:32:34;;;;;;;4.75;0.80;;;;;;;;;;4913570;29;20458;-95
2023/02/02 04:35:00;;;;;;;;;;;;;;;;;;4918713;29;20111;-96
2023/02/02 04:37:47;;;;;;;3.17;0.70;;;;;;;;;;4931485;29;20368;-95
2023/02/02 04:41:17;;;;;;;2.03;0.82;;;;;;;;;;4938126;29;20035;-95
2023/02/02 04:43:27;;;;;;;2.35;0.68;;;;;;;;;;4937336;29;20043;-94
2023/02/02 04:51:59;;;;;;;3.58;0.65;;;;;;;;;;4925306;29;20046;-95
2023/02/02 04:54:54;;;;;;;3.42;0.60;;;;;;;;;;4939259;29;20024;-96
2023/02/02 04:57:32;;;;;;;2.85;0.70;;;;;;;;;;4938204;28;20043;-95
2023/02/02 05:00:11;;;;;;;;;;;;;;;;;;;;;
2023/02/02 05:15:33;;;;;;;4.22;1.00;;;;;;;;;;4945160;29;20036;-96
2023/02/02 05:18:42;;;;;;;1.90;0.77;;;;;;;;;;4922711;29;20059;-95
2023/02/02 05:21:10;;;;;;;3.17;1.02;;;;;;;;;;4935996;29;20067;-95
2023/02/02 05:23:46;;;;;;;;;;;;;;;;;;;;;
2023/02/02 05:26:29;;;;;;;3.15;0.80;;;;;;;;;;4938116;29;20107;-96
2023/02/02 05:28:58;;;;;;;3.45;1.02;;;;;;;;;;4918201;29;20059;-95
2023/02/02 05:31:50;;;;;;;4.35;1.00;;;;;;;;;;4919980;29;20042;-95
2023/02/02 05:34:44;;;;;;;5.20;1.05;;;;;;;;;;4920361;29;20035;-96
2023/02/02 05:43:53;;;;;;;;;;;;;;;;;;;;;
2023/02/02 05:46:40;;;;;;;5.05;1.00;;;;;;;;;;4857859;29;20032;-95
2023/02/02 05:49:31;;;;;;;2.65;0.70;;;;;;;;;;4866311;29;20075;-95
2023/02/02 05:55:31;;;;;;;4.13;1.00;;;;;;;;;;4825330;23;20089;-96
2023/02/02 05:58:24;;;;;;;7.72;3.30;;;;;;;;;;4941119;29;20038;-95
2023/02/02 06:13:42;;;;;;;;;;;;;;;;;;;;;
2023/02/02 06:16:21;;;;;;;5.18;1.48;;;;;;;;;;4910972;29;20038;-96
2023/02/02 06:19:30;;;;;;;;;;;;;;;;;;;;;
2023/02/02 06:22:44;;;;;;;;;;;;;;;;;;;;;
2023/02/02 06:28:35;;;;;;;2.25;0.80;;;;;;;;;;4932537;29;20040;-96
2023/02/02 06:37:02;;;;;;;2.85;0.70;;;;;;;;;;4941462;29;20063;-96
2023/02/02 07:01:14;;;;;;;4.70;1.02;;;;;;;;;;4776708;30;20113;-95
2023/02/02 07:49:31;;;;;;;4.22;0.80;;;;;;;;;;5206565;23;20083;-92
2023/02/02 07:58:37;;;;;;;2.88;0.85;;;;;;;;;;4957236;29;20027;-94
2023/02/02 08:19:55;;;;;;;1.80;0.60;;;;;;;;;;4700421;30;20103;-96
2023/02/02 08:37:28;;;;;;;3.35;0.73;;;;;;;;;;5083748;23;20520;-94
2023/02/02 08:42:42;;;;;;;3.47;1.00;;;;;;;;;;4954801;29;20055;-95
2023/02/02 08:45:37;;;;;;;5.63;1.13;;;;;;;;;;4942496;29;20043;-96
2023/02/02 08:48:26;;;;;;;4.47;1.00;;;;;;;;;;4942989;29;20039;-96
2023/02/02 08:50:55;;;;;;;4.15;1.05;;;;;;;;;;4928754;29;20039;-93
2023/02/02 08:53:31;;;;;;;3.53;0.90;;;;;;;;;;4933133;29;20035;-95
2023/02/02 08:55:58;;;;;;;3.00;1.10;;;;;;;;;;4923548;29;20635;-96
2023/02/02 08:58:34;;;;;;;4.30;1.00;;;;;;;;;;4956318;29;20499;-94
2023/02/02 09:01:44;;;;;;;3.00;1.00;;;;;;;;;;4941214;29;20047;-94
2023/02/02 09:07:27;;;;;;;3.85;1.05;;;;;;;;;;4929355;29;20094;-96
2023/02/02 09:10:36;;;;;;;;;;;;;;;;;;;;;
2023/02/02 09:13:03;;;;;;;4.95;1.30;;;;;;;;;;4956631;29;20041;-95
2023/02/02 09:19:29;;;;;;;3.42;1.02;;;;;;;;;;4961168;28;20078;-95
2023/02/02 09:52:24;;;;;;;4.70;1.38;;;;;;;;;;5833066;23;20062;-96
2023/02/02 10:01:43;;;;;;;;;;;;;;;;;;;;;
2023/02/02 10:22:19;;;;;;;4.32;1.40;;;;;;;;;;4950117;23;20727;-95
2023/02/02 10:39:29;;;;;;;4.50;1.20;;;;;;;;;;4896514;29;20041;-94
2023/02/02 10:42:17;;;;;;;4.30;1.10;;;;;;;;;;4889927;29;20053;-96
2023/02/02 10:48:11;;;;;;;;;;;;;;;;;;;;;
2023/02/02 11:01:07;;;;;;;;;;;;;;;;;;;;;
2023/02/02 11:13:52;;;;;;;5.82;1.20;;;;;;;;;;4726300;30;20048;-96
2023/02/02 11:21:00;;;;;;;;;;;;;;;;;;;;;
2023/02/02 11:23:27;;;;;;;4.45;1.13;;;;;;;;;;4614164;31;20048;-96
2023/02/02 11:26:10;;;;;;;;;;;;;;;;;;;;;
2023/02/02 11:29:29;;;;;;;3.63;1.30;;;;;;;;;;4609610;31;20142;-96
2023/02/02 11:32:19;;;;;;;4.07;1.10;;;;;;;;;;4636043;31;20046;-96
2023/02/02 11:45:25;;;;;;;;;;;;;;;;;;;;;
2023/02/02 12:25:39;;;;;;;6.63;1.50;;;;;;;;;;5040049;23;20059;-95
2023/02/02 12:28:37;;;;;;;;;;;;;;;;;;;;;
2023/02/02 12:31:38;;;;;;;;;;;;;;;;;;;;;
2023/02/02 12:40:54;;;;;;;6.10;1.35;;;;;;;;;;4891176;29;20482;-94
2023/02/02 12:46:53;;;;;;;7.55;1.27;;;;;;;;;;4884967;29;20068;-95
2023/02/02 12:49:45;;;;;;;4.63;1.05;;;;;;;;;;4872945;29;20048;-96
2023/02/02 12:58:47;;;;;;;5.55;1.30;;;;;;;;;;4990663;23;20051;-94
2023/02/02 13:06:45;;;;;;;4.78;1.00;;;;;;;;;;5819373;23;20047;-95
2023/02/02 13:09:43;;;;;;;4.05;0.95;;;;;;;;;;4939056;29;20536;-96
2023/02/02 13:12:13;;;;;;;3.97;1.10;;;;;;;;;;4909128;29;20126;-95
2023/02/02 13:17:55;;;;;;;4.28;1.00;;;;;;;;;;4878179;29;20041;-95
2023/02/02 13:20:41;;;;;;;5.10;1.02;;;;;;;;;;4932782;29;20462;-95
2023/02/02 13:23:26;;;;;;;6.30;1.38;;;;;;;;;;4938271;29;20059;-96
2023/02/02 13:25:57;;;;;;;5.38;1.15;;;;;;;;;;4953852;29;20058;-96
2023/02/02 13:28:44;;;;;;;6.82;1.20;;;;;;;;;;4938093;29;20038;-95
2023/02/02 13:31:33;;;;;;;4.63;1.33;;;;;;;;;;4898801;29;20122;-94
2023/02/02 13:34:20;;;;;;;6.13;1.00;;;;;;;;;;4936723;29;20114;-93
2023/02/02 13:36:50;;;;;;;4.82;1.02;;;;;;;;;;4936126;29;20118;-93
2023/02/02 13:39:56;;;;;;;5.47;1.13;;;;;;;;;;4938050;29;20127;-95
2023/02/02 13:51:49;;;;;;;5.45;1.50;;;;;;;;;;4926456;29;20098;-95
2023/02/02 13:54:27;;;;;;;6.30;1.67;;;;;;;;;;4938123;29;20023;-94
2023/02/02 13:57:12;;;;;;;6.03;1.45;;;;;;;;;;4938161;29;20031;-94
2023/02/02 14:00:01;;;;;;;5.88;1.27;;;;;;;;;;4938982;29;20033;-95
2023/02/02 14:02:32;;;;;;;6.50;1.42;;;;;;;;;;4936308;29;20062;-95
2023/02/02 14:05:21;;;;;;;5.20;1.27;;;;;;;;;;4937984;28;20031;-96
2023/02/02 14:09:16;;;;;;;7.10;1.60;;;;;;;;;;5094669;27;20407;-95
2023/02/02 14:11:52;;;;;;;5.07;1.50;;;;;;;;;;5089855;28;20042;-94
2023/02/02 14:14:32;;;;;;;4.65;1.40;;;;;;;;;;5090169;28;20476;-94
2023/02/02 14:17:18;;;;;;;7.47;1.45;;;;;;;;;;5104865;28;20038;-94
2023/02/02 14:19:54;;;;;;;6.78;1.55;;;;;;;;;;5108735;28;20028;-95
2023/02/02 14:22:54;;;;;;;;;;;;;;;;;;;;;
2023/02/02 14:28:59;;;;;;;6.20;1.60;;;;;;;;;;5259758;22;20057;-96
2023/02/02 14:31:30;;;;;;;7.45;2.10;;;;;;;;;;4936884;29;20595;-95
2023/02/02 14:46:47;;;;;;;;;;;;;;;;;;;;;
2023/02/02 14:55:36;;;;;;;5.72;1.90;;;;;;;;;;5408810;22;20061;-96
2023/02/02 14:58:03;;;;;;;7.68;2.47;;;;;;;;;;5017357;28;20097;-95
2023/02/02 15:00:31;;;;;;;6.07;1.80;;;;;;;;;;4997333;28;20490;-92
2023/02/02 15:03:17;;;;;;;7.47;1.77;;;;;;;;;;4994721;28;20099;-95
2023/02/02 15:05:45;;;;;;;6.20;1.90;;;;;;;;;;4995100;28;20121;-94
2023/02/02 15:08:27;;;;;;;8.52;2.00;;;;;;;;;;5015918;28;20545;-95
2023/02/02 15:11:26;;;;;;;7.20;1.92;;;;;;;;;;4994245;28;20116;-96
2023/02/02 15:13:45;;;;;;;5.75;1.38;;;;;;;;;;5012654;28;20093;-96
2023/02/02 15:16:24;;;;;;;6.50;2.25;;;;;;;;;;4999043;28;20542;-95
2023/02/02 15:21:56;;;;;;;10.15;2.88;;;;;;;;;;5626261;23;20058;-94
2023/02/02 15:24:45;;;;;;;9.63;1.60;;;;;;;;;;4971074;28;20054;-96
2023/02/02 15:27:30;;;;;;;5.15;1.58;;;;;;;;;;4899056;29;20053;-95
2023/02/02 15:30:27;;;;;;;;;;;;;;;;;;;;;
2023/02/02 15:45:48;;;;;;;;;;;;;;;;;;;;;
2023/02/02 15:54:48;;;;;;;;;;;;;;;;;;;;;
2023/02/02 16:03:37;;;;;;;6.40;1.60;;;;;;;;;;4918822;29;20032;-94
2023/02/02 16:09:21;;;;;;;;;;;;;;;;;;;;;
2023/02/02 16:12:23;;;;;;;;;;;;;;;;;;;;;
2023/02/02 16:14:58;;;;;;;4.22;1.20;;;;;;;;;;4933080;29;20555;-95
2023/02/02 16:24:11;;;;;;;8.27;1.75;;;;;;;;;;4871032;29;20029;-95
2023/02/02 16:26:50;;;;;;;10.98;1.80;;;;;;;;;;4941518;29;20023;-96
2023/02/02 16:29:20;;;;;;;7.90;1.73;;;;;;;;;;4932139;28;20031;-94
2023/02/02 16:48:51;;;;;;;;;;;;;;;;;;;;;
2023/02/02 16:51:30;;;;;;;;;;;;;;;;;;;;;
2023/02/02 16:54:18;;;;;;;7.93;1.63;;;;;;;;;;5025778;28;20112;-96
2023/02/02 16:57:05;;;;;;;7.38;1.70;;;;;;;;;;5001471;28;20053;-96
2023/02/02 16:59:36;;;;;;;4.05;1.33;;;;;;;;;;4999662;28;20048;-92
2023/02/02 17:02:05;;;;;;;7.07;1.90;;;;;;;;;;4995802;28;20467;-95
2023/02/02 17:07:17;;;;;;;7.35;1.95;;;;;;;;;;5027116;28;20409;-93
2023/02/02 17:09:48;;;;;;;5.90;1.60;;;;;;;;;;5000981;28;20037;-96
2023/02/02 17:12:48;;;;;;;7.57;1.55;;;;;;;;;;4987776;28;20027;-93
2023/02/02 17:15:31;;;;;;;;;;;;;;;;;;;;;
2023/02/02 17:27:30;;;;;;;5.63;1.98;;;;;;;;;;5016109;28;20069;-95
2023/02/02 17:30:28;;;;;;;6.30;2.05;;;;;;;;;;5022850;28;20029;-96
2023/02/02 17:32:56;;;;;;;4.28;1.70;;;;;;;;;;4998593;28;20108;-94
2023/02/02 17:35:34;;;;;;;7.13;2.08;;;;;;;;;;4984466;28;20510;-96
2023/02/02 17:38:26;;;;;;;8.25;2.25;;;;;;;;;;5007449;28;20033;-96
2023/02/02 17:50:37;;;;;;;9.05;2.67;;;;;;;;;;4899018;29;20066;-95
2023/02/02 17:53:33;;;;;;;;;;;;;;;;;;;;;
2023/02/02 18:41:25;;;;;;;7.30;2.15;;;;;;;;;;5130219;23;20073;31
2023/02/02 20:01:00;;;;;;;;;;;;;;;;;;;;;
2023/02/02 20:04:04;;;;;;;8.07;4.35;;;;;;;;;;4946804;29;20138;-96
2023/02/02 20:10:45;;;;;;;7.40;3.15;;;;;;;;;;4836666;29;20073;-95
2023/02/02 21:29:25;;;;;;;16.67;6.82;;;;;;;;;;4903000;29;20131;-96
2023/02/02 21:47:59;;;;;;;;;;;;;;;;;;;;;
2023/02/02 22:04:02;;;;;;;;;;;;;;;;;;;;;
2023/02/02 22:25:31;;;;;;;15.43;5.85;;;;;;;;;;4769504;30;20065;-96
2023/02/02 22:47:33;;;;;;;;;;;;;;;;;;;;;
2023/02/02 22:54:30;;;;;;;;;;;;;;;;;;;;;
2023/02/02 23:12:57;;;;;;;;;;;;;;;;;;;;;
2023/02/02 23:16:14;;;;;;;;;;;;;;;;;;;;;
2023/02/02 23:18:49;;;;;;;;;;;;;;;;;;;;;
2023/02/02 23:30:53;;;;;;;;;;;;;;;;;;;;;
